sensor_id;sensor_type;location;lat;lon;timestamp;pressure;altitude;pressure_sealevel;temperature;humidity
11017;BME280;54687;50.800;6.772;2023-01-15T00:01:37;61113.88;;;-144.06;59.18
11017;BME280;54687;50.800;6.772;2023-01-15T00:04:05;61151.59;;;-144.06;59.36
11017;BME280;54687;50.800;6.772;2023-01-15T00:06:35;61155.81;;;-144.06;59.61
11017;BME280;54687;50.800;6.772;2023-01-15T00:09:03;61141.13;;;-144.06;60.59
11017;BME280;54687;50.800;6.772;2023-01-15T00:11:30;61160.00;;;-144.06;61.20
11017;BME280;54687;50.800;6.772;2023-01-15T00:13:57;61143.22;;;-144.06;60.53
11017;BME280;54687;50.800;6.772;2023-01-15T00:16:24;61189.34;;;-144.06;61.20
11017;BME280;54687;50.800;6.772;2023-01-15T00:18:52;61147.41;;;-144.06;61.13
11017;BME280;54687;50.800;6.772;2023-01-15T00:21:20;61139.03;;;-144.06;61.14
11017;BME280;54687;50.800;6.772;2023-01-15T00:23:47;61151.59;;;-144.06;60.78
11017;BME280;54687;50.800;6.772;2023-01-15T00:26:33;61134.84;;;-144.06;60.65
11017;BME280;54687;50.800;6.772;2023-01-15T00:29:18;61164.19;;;-144.06;60.58
11017;BME280;54687;50.800;6.772;2023-01-15T00:31:53;61136.94;;;-144.06;60.75
11017;BME280;54687;50.800;6.772;2023-01-15T00:34:22;61193.53;;;-144.06;60.97
11017;BME280;54687;50.800;6.772;2023-01-15T00:36:48;61166.28;;;-144.06;60.49
11017;BME280;54687;50.800;6.772;2023-01-15T00:39:15;61143.22;;;-144.06;61.12
11017;BME280;54687;50.800;6.772;2023-01-15T00:41:43;61180.97;;;-144.06;60.75
11017;BME280;54687;50.800;6.772;2023-01-15T00:44:09;61139.03;;;-144.06;60.97
11017;BME280;54687;50.800;6.772;2023-01-15T00:46:36;61157.91;;;-144.06;61.51
11017;BME280;54687;50.800;6.772;2023-01-15T00:49:03;61201.91;;;-144.06;60.95
11017;BME280;54687;50.800;6.772;2023-01-15T00:51:30;61153.69;;;-144.06;60.21
11017;BME280;54687;50.800;6.772;2023-01-15T00:53:57;61160.00;;;-144.06;59.27
11017;BME280;54687;50.800;6.772;2023-01-15T00:56:24;61157.91;;;-144.06;59.42
11017;BME280;54687;50.800;6.772;2023-01-15T00:58:52;61164.19;;;-144.06;59.21
11017;BME280;54687;50.800;6.772;2023-01-15T01:01:18;61149.50;;;-144.06;59.68
11017;BME280;54687;50.800;6.772;2023-01-15T01:03:45;61168.38;;;-144.06;59.32
11017;BME280;54687;50.800;6.772;2023-01-15T01:06:14;61147.41;;;-144.06;60.06
11017;BME280;54687;50.800;6.772;2023-01-15T01:08:41;61176.75;;;-144.06;60.05
11017;BME280;54687;50.800;6.772;2023-01-15T01:11:10;61155.81;;;-144.06;60.23
11017;BME280;54687;50.800;6.772;2023-01-15T01:13:38;61122.25;;;-144.06;60.28
11017;BME280;54687;50.800;6.772;2023-01-15T01:16:20;61143.22;;;-144.06;59.59
11017;BME280;54687;50.800;6.772;2023-01-15T01:18:47;61185.16;;;-144.06;59.74
11017;BME280;54687;50.800;6.772;2023-01-15T01:21:14;61147.41;;;-144.06;59.60
11017;BME280;54687;50.800;6.772;2023-01-15T01:23:40;61180.97;;;-144.06;59.21
11017;BME280;54687;50.800;6.772;2023-01-15T01:26:07;61139.03;;;-144.06;59.22
11017;BME280;54687;50.800;6.772;2023-01-15T01:28:34;61147.41;;;-144.06;58.59
11017;BME280;54687;50.800;6.772;2023-01-15T01:31:03;61151.59;;;-144.06;58.78
11017;BME280;54687;50.800;6.772;2023-01-15T01:33:31;61168.38;;;-144.06;58.74
11017;BME280;54687;50.800;6.772;2023-01-15T01:35:58;61160.00;;;-144.06;58.74
11017;BME280;54687;50.800;6.772;2023-01-15T01:38:24;61153.69;;;-144.06;58.55
11017;BME280;54687;50.800;6.772;2023-01-15T01:40:51;61189.34;;;-144.06;58.43
11017;BME280;54687;50.800;6.772;2023-01-15T01:43:19;61160.00;;;-144.06;58.30
11017;BME280;54687;50.800;6.772;2023-01-15T01:45:46;61170.47;;;-144.06;58.06
11017;BME280;54687;50.800;6.772;2023-01-15T01:48:13;61176.75;;;-144.06;58.39
11017;BME280;54687;50.800;6.772;2023-01-15T01:50:44;61172.56;;;-144.06;57.86
11017;BME280;54687;50.800;6.772;2023-01-15T01:53:17;61113.88;;;-144.06;58.07
11017;BME280;54687;50.800;6.772;2023-01-15T01:55:45;61143.22;;;-144.06;57.81
11017;BME280;54687;50.800;6.772;2023-01-15T01:58:12;61172.56;;;-144.06;57.81
11017;BME280;54687;50.800;6.772;2023-01-15T02:00:44;61147.41;;;-144.06;57.16
11017;BME280;54687;50.800;6.772;2023-01-15T02:03:11;61172.56;;;-144.06;57.32
11017;BME280;54687;50.800;6.772;2023-01-15T02:05:42;61147.41;;;-144.06;57.60
11017;BME280;54687;50.800;6.772;2023-01-15T02:08:12;61199.81;;;-144.06;57.78
11017;BME280;54687;50.800;6.772;2023-01-15T02:10:39;61172.56;;;-144.06;57.72
11017;BME280;54687;50.800;6.772;2023-01-15T02:13:11;61180.97;;;-144.06;57.73
11017;BME280;54687;50.800;6.772;2023-01-15T02:15:44;61141.13;;;-144.06;57.69
11017;BME280;54687;50.800;6.772;2023-01-15T02:18:15;61113.88;;;-144.06;57.50
11017;BME280;54687;50.800;6.772;2023-01-15T02:20:47;61176.75;;;-144.06;57.91
11017;BME280;54687;50.800;6.772;2023-01-15T02:29:26;61176.75;;;-144.06;57.43
11017;BME280;54687;50.800;6.772;2023-01-15T02:31:55;61157.91;;;-144.06;57.64
11017;BME280;54687;50.800;6.772;2023-01-15T02:34:25;61172.56;;;-144.06;57.37
11017;BME280;54687;50.800;6.772;2023-01-15T02:36:59;61132.75;;;-144.06;57.17
11017;BME280;54687;50.800;6.772;2023-01-15T02:39:28;61164.19;;;-144.06;56.91
11017;BME280;54687;50.800;6.772;2023-01-15T02:42:00;61172.56;;;-144.06;57.26
11017;BME280;54687;50.800;6.772;2023-01-15T02:44:31;61197.72;;;-144.06;57.43
11017;BME280;54687;50.800;6.772;2023-01-15T02:47:00;61180.97;;;-144.06;57.44
11017;BME280;54687;50.800;6.772;2023-01-15T02:49:29;61139.03;;;-144.06;57.43
11017;BME280;54687;50.800;6.772;2023-01-15T02:52:00;61151.59;;;-144.06;57.55
11017;BME280;54687;50.800;6.772;2023-01-15T02:54:31;61155.81;;;-144.06;57.54
11017;BME280;54687;50.800;6.772;2023-01-15T02:57:01;61155.81;;;-144.06;57.54
11017;BME280;54687;50.800;6.772;2023-01-15T02:59:34;61126.44;;;-144.06;57.61
11017;BME280;54687;50.800;6.772;2023-01-15T03:02:05;61155.81;;;-144.06;57.43
11017;BME280;54687;50.800;6.772;2023-01-15T03:04:39;61183.06;;;-144.06;57.79
11017;BME280;54687;50.800;6.772;2023-01-15T03:07:11;61151.59;;;-144.06;57.76
11017;BME280;54687;50.800;6.772;2023-01-15T03:09:40;61172.56;;;-144.06;58.09
11017;BME280;54687;50.800;6.772;2023-01-15T03:12:14;61151.59;;;-144.06;57.95
11017;BME280;54687;50.800;6.772;2023-01-15T03:14:51;61174.66;;;-144.06;57.96
11017;BME280;54687;50.800;6.772;2023-01-15T03:17:23;61170.47;;;-144.06;57.77
11017;BME280;54687;50.800;6.772;2023-01-15T03:19:55;61134.84;;;-144.06;57.38
11017;BME280;54687;50.800;6.772;2023-01-15T03:22:27;61149.50;;;-144.06;57.56
11017;BME280;54687;50.800;6.772;2023-01-15T03:25:00;61197.72;;;-144.06;57.12
11017;BME280;54687;50.800;6.772;2023-01-15T03:27:28;61162.09;;;-144.06;56.82
11017;BME280;54687;50.800;6.772;2023-01-15T03:30:02;61134.84;;;-144.06;56.85
11017;BME280;54687;50.800;6.772;2023-01-15T03:32:29;61157.91;;;-144.06;56.42
11017;BME280;54687;50.800;6.772;2023-01-15T03:34:57;61122.25;;;-144.06;55.72
11017;BME280;54687;50.800;6.772;2023-01-15T03:37:26;61162.09;;;-144.06;55.57
11017;BME280;54687;50.800;6.772;2023-01-15T03:39:54;61189.34;;;-144.06;55.45
11017;BME280;54687;50.800;6.772;2023-01-15T03:42:28;61168.38;;;-144.06;55.41
11017;BME280;54687;50.800;6.772;2023-01-15T03:45:03;61149.50;;;-144.06;55.33
11017;BME280;54687;50.800;6.772;2023-01-15T03:47:40;61201.91;;;-144.06;55.47
11017;BME280;54687;50.800;6.772;2023-01-15T03:50:15;61132.75;;;-144.06;55.15
11017;BME280;54687;50.800;6.772;2023-01-15T03:52:47;61168.38;;;-144.06;55.21
11017;BME280;54687;50.800;6.772;2023-01-15T03:55:18;61210.31;;;-144.06;55.36
11017;BME280;54687;50.800;6.772;2023-01-15T03:57:49;61080.34;;;-144.06;55.63
11017;BME280;54687;50.800;6.772;2023-01-15T04:00:21;61130.66;;;-144.06;55.96
11017;BME280;54687;50.800;6.772;2023-01-15T04:02:52;61155.81;;;-144.06;56.30
11017;BME280;54687;50.800;6.772;2023-01-15T04:05:20;61176.75;;;-144.06;56.19
11017;BME280;54687;50.800;6.772;2023-01-15T04:07:48;61134.84;;;-144.06;56.51
11017;BME280;54687;50.800;6.772;2023-01-15T04:10:16;61170.47;;;-144.06;56.68
11017;BME280;54687;50.800;6.772;2023-01-15T04:12:42;61134.84;;;-144.06;56.81
11017;BME280;54687;50.800;6.772;2023-01-15T04:15:10;61155.81;;;-144.06;57.22
11017;BME280;54687;50.800;6.772;2023-01-15T04:17:38;61145.31;;;-144.06;57.20
11017;BME280;54687;50.800;6.772;2023-01-15T04:20:06;61139.03;;;-144.06;57.44
11017;BME280;54687;50.800;6.772;2023-01-15T04:22:33;61176.75;;;-144.06;57.73
11017;BME280;54687;50.800;6.772;2023-01-15T04:25:00;61151.59;;;-144.06;57.70
11017;BME280;54687;50.800;6.772;2023-01-15T04:27:27;61149.50;;;-144.06;57.70
11017;BME280;54687;50.800;6.772;2023-01-15T04:29:53;61193.53;;;-144.06;57.77
11017;BME280;54687;50.800;6.772;2023-01-15T04:32:20;61168.38;;;-144.06;57.89
11017;BME280;54687;50.800;6.772;2023-01-15T04:34:48;61170.47;;;-144.06;57.62
11017;BME280;54687;50.800;6.772;2023-01-15T04:37:15;61162.09;;;-144.06;57.47
11017;BME280;54687;50.800;6.772;2023-01-15T04:39:42;61168.38;;;-144.06;57.29
11017;BME280;54687;50.800;6.772;2023-01-15T04:42:10;61180.97;;;-144.06;57.15
11017;BME280;54687;50.800;6.772;2023-01-15T04:44:55;61164.19;;;-144.06;56.55
11017;BME280;54687;50.800;6.772;2023-01-15T04:47:21;61160.00;;;-144.06;56.43
11017;BME280;54687;50.800;6.772;2023-01-15T04:49:49;61170.47;;;-144.06;56.01
11017;BME280;54687;50.800;6.772;2023-01-15T04:52:16;61147.41;;;-144.06;55.48
11017;BME280;54687;50.800;6.772;2023-01-15T04:54:43;61153.69;;;-144.06;55.33
11017;BME280;54687;50.800;6.772;2023-01-15T04:57:10;61176.75;;;-144.06;55.01
11017;BME280;54687;50.800;6.772;2023-01-15T04:59:36;61193.53;;;-144.06;55.11
11017;BME280;54687;50.800;6.772;2023-01-15T05:02:03;61180.97;;;-144.06;55.08
11017;BME280;54687;50.800;6.772;2023-01-15T05:04:30;61149.50;;;-144.06;54.95
11017;BME280;54687;50.800;6.772;2023-01-15T05:06:59;61162.09;;;-144.06;54.94
11017;BME280;54687;50.800;6.772;2023-01-15T05:09:26;61157.91;;;-144.06;54.77
11017;BME280;54687;50.800;6.772;2023-01-15T05:11:53;61166.28;;;-144.06;54.84
11017;BME280;54687;50.800;6.772;2023-01-15T05:14:19;61134.84;;;-144.06;54.44
11017;BME280;54687;50.800;6.772;2023-01-15T05:16:47;61180.97;;;-144.06;54.23
11017;BME280;54687;50.800;6.772;2023-01-15T05:19:13;61164.19;;;-144.06;53.36
11017;BME280;54687;50.800;6.772;2023-01-15T05:21:42;61178.84;;;-144.06;53.48
11017;BME280;54687;50.800;6.772;2023-01-15T05:24:13;61143.22;;;-144.06;53.18
11017;BME280;54687;50.800;6.772;2023-01-15T05:29:12;61147.41;;;-144.06;53.61
11017;BME280;54687;50.800;6.772;2023-01-15T05:31:39;61160.00;;;-144.06;53.79
11017;BME280;54687;50.800;6.772;2023-01-15T05:34:06;61168.38;;;-144.06;54.08
11017;BME280;54687;50.800;6.772;2023-01-15T05:36:32;61155.81;;;-144.06;54.02
11017;BME280;54687;50.800;6.772;2023-01-15T05:39:01;61183.06;;;-144.06;53.91
11017;BME280;54687;50.800;6.772;2023-01-15T05:41:30;61162.09;;;-144.06;54.43
11017;BME280;54687;50.800;6.772;2023-01-15T05:44:16;61145.31;;;-144.06;54.86
11017;BME280;54687;50.800;6.772;2023-01-15T05:46:43;61149.50;;;-144.06;55.35
11017;BME280;54687;50.800;6.772;2023-01-15T05:49:12;61143.22;;;-144.06;55.45
11017;BME280;54687;50.800;6.772;2023-01-15T05:51:40;61162.09;;;-144.06;55.64
11017;BME280;54687;50.800;6.772;2023-01-15T05:54:08;61149.50;;;-144.06;55.92
11017;BME280;54687;50.800;6.772;2023-01-15T05:56:37;61164.19;;;-144.06;56.27
11017;BME280;54687;50.800;6.772;2023-01-15T05:59:05;61193.53;;;-144.06;56.73
11017;BME280;54687;50.800;6.772;2023-01-15T06:01:32;61168.38;;;-144.06;57.32
11017;BME280;54687;50.800;6.772;2023-01-15T06:04:00;61153.69;;;-144.06;57.81
11017;BME280;54687;50.800;6.772;2023-01-15T06:06:27;61172.56;;;-144.06;57.73
11017;BME280;54687;50.800;6.772;2023-01-15T06:08:54;61193.53;;;-144.06;57.41
11017;BME280;54687;50.800;6.772;2023-01-15T06:11:21;61168.38;;;-144.06;57.46
11017;BME280;54687;50.800;6.772;2023-01-15T06:13:49;61164.19;;;-144.06;57.61
11017;BME280;54687;50.800;6.772;2023-01-15T06:16:16;61164.19;;;-144.06;57.39
11017;BME280;54687;50.800;6.772;2023-01-15T06:18:44;61153.69;;;-144.06;57.17
11017;BME280;54687;50.800;6.772;2023-01-15T06:21:12;61155.81;;;-144.06;57.12
11017;BME280;54687;50.800;6.772;2023-01-15T06:23:40;61168.38;;;-144.06;57.31
11017;BME280;54687;50.800;6.772;2023-01-15T06:26:10;61164.19;;;-144.06;57.78
11017;BME280;54687;50.800;6.772;2023-01-15T06:28:38;61183.06;;;-144.06;57.61
11017;BME280;54687;50.800;6.772;2023-01-15T06:31:06;61153.69;;;-144.06;57.83
11017;BME280;54687;50.800;6.772;2023-01-15T06:33:33;61147.41;;;-144.06;57.89
11017;BME280;54687;50.800;6.772;2023-01-15T06:36:02;61151.59;;;-144.06;58.44
11017;BME280;54687;50.800;6.772;2023-01-15T06:38:29;61122.25;;;-144.06;58.77
11017;BME280;54687;50.800;6.772;2023-01-15T06:40:58;61157.91;;;-144.06;58.96
11017;BME280;54687;50.800;6.772;2023-01-15T06:43:25;61180.97;;;-144.06;59.18
11017;BME280;54687;50.800;6.772;2023-01-15T06:46:11;61187.25;;;-144.06;59.39
11017;BME280;54687;50.800;6.772;2023-01-15T06:48:56;61180.97;;;-144.06;59.60
11017;BME280;54687;50.800;6.772;2023-01-15T06:51:22;61151.59;;;-144.06;59.55
11017;BME280;54687;50.800;6.772;2023-01-15T06:53:49;61201.91;;;-144.06;59.52
11017;BME280;54687;50.800;6.772;2023-01-15T06:56:16;61178.84;;;-144.06;59.44
11017;BME280;54687;50.800;6.772;2023-01-15T06:58:43;61172.56;;;-144.06;59.17
11017;BME280;54687;50.800;6.772;2023-01-15T07:01:13;61147.41;;;-144.06;59.34
11017;BME280;54687;50.800;6.772;2023-01-15T07:03:40;61164.19;;;-144.06;59.48
11017;BME280;54687;50.800;6.772;2023-01-15T07:06:08;61164.19;;;-144.06;59.45
11017;BME280;54687;50.800;6.772;2023-01-15T07:08:35;61147.41;;;-144.06;59.57
11017;BME280;54687;50.800;6.772;2023-01-15T07:11:03;61166.28;;;-144.06;59.70
11017;BME280;54687;50.800;6.772;2023-01-15T07:13:30;61204.00;;;-144.06;59.60
11017;BME280;54687;50.800;6.772;2023-01-15T07:15:57;61170.47;;;-144.06;59.79
11017;BME280;54687;50.800;6.772;2023-01-15T07:18:27;61162.09;;;-144.06;59.66
11017;BME280;54687;50.800;6.772;2023-01-15T07:20:54;61183.06;;;-144.06;59.58
11017;BME280;54687;50.800;6.772;2023-01-15T07:23:22;61168.38;;;-144.06;59.72
11017;BME280;54687;50.800;6.772;2023-01-15T07:25:49;61176.75;;;-144.06;59.81
11017;BME280;54687;50.800;6.772;2023-01-15T07:28:15;61160.00;;;-144.06;59.91
11017;BME280;54687;50.800;6.772;2023-01-15T07:30:42;61176.75;;;-144.06;60.11
11017;BME280;54687;50.800;6.772;2023-01-15T07:33:09;61176.75;;;-144.06;59.84
11017;BME280;54687;50.800;6.772;2023-01-15T07:35:36;61174.66;;;-144.06;60.13
11017;BME280;54687;50.800;6.772;2023-01-15T07:38:03;61172.56;;;-144.06;59.80
11017;BME280;54687;50.800;6.772;2023-01-15T07:40:30;61176.75;;;-144.06;59.65
11017;BME280;54687;50.800;6.772;2023-01-15T07:42:57;61214.50;;;-144.06;59.54
11017;BME280;54687;50.800;6.772;2023-01-15T07:45:42;61180.97;;;-144.06;59.33
11017;BME280;54687;50.800;6.772;2023-01-15T07:48:27;61185.16;;;-144.06;59.23
11017;BME280;54687;50.800;6.772;2023-01-15T07:51:12;61180.97;;;-144.06;58.93
11017;BME280;54687;50.800;6.772;2023-01-15T07:53:39;61178.84;;;-144.06;59.21
11017;BME280;54687;50.800;6.772;2023-01-15T07:56:06;61164.19;;;-144.06;59.08
11017;BME280;54687;50.800;6.772;2023-01-15T07:58:34;61206.09;;;-144.06;58.86
11017;BME280;54687;50.800;6.772;2023-01-15T08:01:00;61180.97;;;-144.06;58.61
11017;BME280;54687;50.800;6.772;2023-01-15T08:03:27;61176.75;;;-144.06;58.61
11017;BME280;54687;50.800;6.772;2023-01-15T08:05:54;61155.81;;;-144.06;58.91
11017;BME280;54687;50.800;6.772;2023-01-15T08:08:22;61195.63;;;-144.06;59.37
11017;BME280;54687;50.800;6.772;2023-01-15T08:10:48;61166.28;;;-144.06;59.70
11017;BME280;54687;50.800;6.772;2023-01-15T08:13:33;61172.56;;;-144.06;59.60
11017;BME280;54687;50.800;6.772;2023-01-15T08:16:17;61151.59;;;-144.06;59.42
11017;BME280;54687;50.800;6.772;2023-01-15T08:18:44;61180.97;;;-144.06;59.21
11017;BME280;54687;50.800;6.772;2023-01-15T08:21:15;61164.19;;;-144.06;58.68
11017;BME280;54687;50.800;6.772;2023-01-15T08:23:43;61168.38;;;-144.06;57.95
11017;BME280;54687;50.800;6.772;2023-01-15T08:26:11;61180.97;;;-144.06;57.71
11017;BME280;54687;50.800;6.772;2023-01-15T08:28:38;61168.38;;;-144.06;58.32
11017;BME280;54687;50.800;6.772;2023-01-15T08:31:05;61193.53;;;-144.06;58.71
11017;BME280;54687;50.800;6.772;2023-01-15T08:33:32;61199.81;;;-144.06;58.81
11017;BME280;54687;50.800;6.772;2023-01-15T08:35:59;61160.00;;;-144.06;59.06
11017;BME280;54687;50.800;6.772;2023-01-15T08:38:26;61187.25;;;-144.06;59.51
11017;BME280;54687;50.800;6.772;2023-01-15T08:40:54;61189.34;;;-144.06;59.60
11017;BME280;54687;50.800;6.772;2023-01-15T08:43:24;61204.00;;;-144.06;59.71
11017;BME280;54687;50.800;6.772;2023-01-15T08:45:51;61193.53;;;-144.06;60.01
11017;BME280;54687;50.800;6.772;2023-01-15T08:48:18;61185.16;;;-144.06;59.73
11017;BME280;54687;50.800;6.772;2023-01-15T08:50:44;61168.38;;;-144.06;59.18
11017;BME280;54687;50.800;6.772;2023-01-15T08:53:11;61201.91;;;-144.06;58.59
11017;BME280;54687;50.800;6.772;2023-01-15T08:55:38;61166.28;;;-144.06;58.41
11017;BME280;54687;50.800;6.772;2023-01-15T08:58:06;61128.53;;;-144.06;57.93
11017;BME280;54687;50.800;6.772;2023-01-15T09:00:33;61147.41;;;-144.06;57.66
11017;BME280;54687;50.800;6.772;2023-01-15T09:02:59;61134.84;;;-144.06;57.68
11017;BME280;54687;50.800;6.772;2023-01-15T09:05:26;61157.91;;;-144.06;57.29
11017;BME280;54687;50.800;6.772;2023-01-15T09:07:53;61172.56;;;-144.06;56.83
11017;BME280;54687;50.800;6.772;2023-01-15T09:10:20;61189.34;;;-144.06;56.76
11017;BME280;54687;50.800;6.772;2023-01-15T09:12:46;61162.09;;;-144.06;56.53
11017;BME280;54687;50.800;6.772;2023-01-15T09:15:15;61160.00;;;-144.06;56.52
11017;BME280;54687;50.800;6.772;2023-01-15T09:17:41;61191.44;;;-144.06;55.94
11017;BME280;54687;50.800;6.772;2023-01-15T09:20:11;61132.75;;;-144.06;56.01
11017;BME280;54687;50.800;6.772;2023-01-15T09:22:38;61231.25;;;-144.06;56.08
11017;BME280;54687;50.800;6.772;2023-01-15T09:25:05;61145.31;;;-144.06;55.82
11017;BME280;54687;50.800;6.772;2023-01-15T09:27:32;61122.25;;;-144.06;56.00
11017;BME280;54687;50.800;6.772;2023-01-15T09:29:59;61170.47;;;-144.06;56.22
11017;BME280;54687;50.800;6.772;2023-01-15T09:32:27;61166.28;;;-144.06;56.47
11017;BME280;54687;50.800;6.772;2023-01-15T09:34:58;61201.91;;;-144.06;56.28
11017;BME280;54687;50.800;6.772;2023-01-15T09:37:25;61172.56;;;-144.06;55.81
11017;BME280;54687;50.800;6.772;2023-01-15T09:39:52;61172.56;;;-144.06;55.64
11017;BME280;54687;50.800;6.772;2023-01-15T09:42:30;61222.88;;;-144.06;55.42
11017;BME280;54687;50.800;6.772;2023-01-15T09:45:12;61176.75;;;-144.06;55.14
11017;BME280;54687;50.800;6.772;2023-01-15T09:47:50;61168.38;;;-144.06;55.13
11017;BME280;54687;50.800;6.772;2023-01-15T09:50:29;61168.38;;;-144.06;54.39
11017;BME280;54687;50.800;6.772;2023-01-15T09:53:31;61204.00;;;-144.06;54.03
11017;BME280;54687;50.800;6.772;2023-01-15T09:56:02;61164.19;;;-144.06;54.40
11017;BME280;54687;50.800;6.772;2023-01-15T09:58:32;61197.72;;;-144.06;54.15
11017;BME280;54687;50.800;6.772;2023-01-15T10:01:00;61160.00;;;-144.06;54.15
11017;BME280;54687;50.800;6.772;2023-01-15T10:03:34;61164.19;;;-144.06;54.28
11017;BME280;54687;50.800;6.772;2023-01-15T10:06:10;61155.81;;;-144.06;54.39
11017;BME280;54687;50.800;6.772;2023-01-15T10:08:41;61164.19;;;-144.06;54.14
11017;BME280;54687;50.800;6.772;2023-01-15T10:11:23;61160.00;;;-144.06;53.81
11017;BME280;54687;50.800;6.772;2023-01-15T10:14:24;61164.19;;;-144.06;53.59
11017;BME280;54687;50.800;6.772;2023-01-15T10:16:54;61151.59;;;-144.06;53.21
11017;BME280;54687;50.800;6.772;2023-01-15T10:19:22;61147.41;;;-144.06;53.17
11017;BME280;54687;50.800;6.772;2023-01-15T10:21:56;61195.63;;;-144.06;52.79
11017;BME280;54687;50.800;6.772;2023-01-15T10:24:33;61124.34;;;-144.06;52.54
11017;BME280;54687;50.800;6.772;2023-01-15T10:27:07;61149.50;;;-144.06;52.20
11017;BME280;54687;50.800;6.772;2023-01-15T10:29:43;61164.19;;;-144.06;51.31
11017;BME280;54687;50.800;6.772;2023-01-15T10:32:21;61130.66;;;-144.06;51.52
11017;BME280;54687;50.800;6.772;2023-01-15T10:35:15;61149.50;;;-144.06;51.53
11017;BME280;54687;50.800;6.772;2023-01-15T10:37:48;61141.13;;;-144.06;50.88
11017;BME280;54687;50.800;6.772;2023-01-15T10:40:37;61107.59;;;-144.06;51.14
11017;BME280;54687;50.800;6.772;2023-01-15T10:43:10;61176.75;;;-144.06;50.96
11017;BME280;54687;50.800;6.772;2023-01-15T10:45:42;61168.38;;;-144.06;50.25
11017;BME280;54687;50.800;6.772;2023-01-15T10:48:16;61145.31;;;-144.06;50.33
11017;BME280;54687;50.800;6.772;2023-01-15T10:50:46;61155.81;;;-144.06;51.21
11017;BME280;54687;50.800;6.772;2023-01-15T10:53:17;61151.59;;;-144.06;51.01
11017;BME280;54687;50.800;6.772;2023-01-15T10:55:52;61143.22;;;-144.06;50.35
11017;BME280;54687;50.800;6.772;2023-01-15T10:58:26;61149.50;;;-144.06;50.76
11017;BME280;54687;50.800;6.772;2023-01-15T11:00:58;61147.41;;;-144.06;50.03
11017;BME280;54687;50.800;6.772;2023-01-15T11:03:33;61136.94;;;-144.06;48.85
11017;BME280;54687;50.800;6.772;2023-01-15T11:06:03;61134.84;;;-144.06;48.89
11017;BME280;54687;50.800;6.772;2023-01-15T11:08:31;61168.38;;;-144.06;49.03
11017;BME280;54687;50.800;6.772;2023-01-15T11:11:11;61130.66;;;-144.06;48.76
11017;BME280;54687;50.800;6.772;2023-01-15T11:13:51;61164.19;;;-144.06;49.22
11017;BME280;54687;50.800;6.772;2023-01-15T11:16:41;61130.66;;;-144.06;49.84
11017;BME280;54687;50.800;6.772;2023-01-15T11:19:28;61134.84;;;-144.06;49.10
11017;BME280;54687;50.800;6.772;2023-01-15T11:22:07;61174.66;;;-144.06;48.92
11017;BME280;54687;50.800;6.772;2023-01-15T11:24:36;61145.31;;;-144.06;49.27
11017;BME280;54687;50.800;6.772;2023-01-15T11:27:05;61105.50;;;-144.06;49.18
11017;BME280;54687;50.800;6.772;2023-01-15T11:29:34;61130.66;;;-144.06;48.46
11017;BME280;54687;50.800;6.772;2023-01-15T11:32:02;61155.81;;;-144.06;48.44
11017;BME280;54687;50.800;6.772;2023-01-15T11:34:29;61109.69;;;-144.06;48.71
11017;BME280;54687;50.800;6.772;2023-01-15T11:37:02;61145.31;;;-144.06;48.54
11017;BME280;54687;50.800;6.772;2023-01-15T11:39:30;61147.41;;;-144.06;48.41
11017;BME280;54687;50.800;6.772;2023-01-15T11:41:58;61143.22;;;-144.06;48.75
11017;BME280;54687;50.800;6.772;2023-01-15T11:44:50;61174.66;;;-144.06;48.15
11017;BME280;54687;50.800;6.772;2023-01-15T11:47:34;61139.03;;;-144.06;47.84
11017;BME280;54687;50.800;6.772;2023-01-15T11:50:19;61147.41;;;-144.06;48.15
11017;BME280;54687;50.800;6.772;2023-01-15T11:53:06;61132.75;;;-144.06;47.78
11017;BME280;54687;50.800;6.772;2023-01-15T11:55:36;61109.69;;;-144.06;48.22
11017;BME280;54687;50.800;6.772;2023-01-15T11:58:03;61149.50;;;-144.06;48.42
11017;BME280;54687;50.800;6.772;2023-01-15T12:00:33;61090.81;;;-144.06;48.34
11017;BME280;54687;50.800;6.772;2023-01-15T12:03:05;61113.88;;;-144.06;48.05
11017;BME280;54687;50.800;6.772;2023-01-15T12:05:45;61084.53;;;-144.06;47.85
11017;BME280;54687;50.800;6.772;2023-01-15T12:08:18;61097.09;;;-144.06;48.12
11017;BME280;54687;50.800;6.772;2023-01-15T12:11:37;61097.09;;;-144.06;48.47
11017;BME280;54687;50.800;6.772;2023-01-15T12:14:40;61126.44;;;-144.06;48.09
11017;BME280;54687;50.800;6.772;2023-01-15T12:17:26;61151.59;;;-144.06;48.98
11017;BME280;54687;50.800;6.772;2023-01-15T12:20:02;61172.56;;;-144.06;48.75
11017;BME280;54687;50.800;6.772;2023-01-15T12:22:44;61145.31;;;-144.06;49.13
11017;BME280;54687;50.800;6.772;2023-01-15T12:25:19;61141.13;;;-144.06;49.02
11017;BME280;54687;50.800;6.772;2023-01-15T12:27:57;61128.53;;;-144.06;49.28
11017;BME280;54687;50.800;6.772;2023-01-15T12:30:30;61143.22;;;-144.06;49.25
11017;BME280;54687;50.800;6.772;2023-01-15T12:33:09;61145.31;;;-144.06;49.25
11017;BME280;54687;50.800;6.772;2023-01-15T12:35:41;61147.41;;;-144.06;48.41
11017;BME280;54687;50.800;6.772;2023-01-15T12:38:15;61170.47;;;-144.06;47.81
11017;BME280;54687;50.800;6.772;2023-01-15T12:40:47;61124.34;;;-144.06;47.33
11017;BME280;54687;50.800;6.772;2023-01-15T12:43:20;61122.25;;;-144.06;47.34
11017;BME280;54687;50.800;6.772;2023-01-15T12:46:09;61115.97;;;-144.06;47.40
11017;BME280;54687;50.800;6.772;2023-01-15T12:48:41;61113.88;;;-144.06;47.31
11017;BME280;54687;50.800;6.772;2023-01-15T12:51:13;61143.22;;;-144.06;47.85
11017;BME280;54687;50.800;6.772;2023-01-15T12:53:44;61126.44;;;-144.06;47.81
11017;BME280;54687;50.800;6.772;2023-01-15T12:56:17;61105.50;;;-144.06;48.25
11017;BME280;54687;50.800;6.772;2023-01-15T12:58:49;61143.22;;;-144.06;48.16
11017;BME280;54687;50.800;6.772;2023-01-15T13:01:20;61130.66;;;-144.06;47.58
11017;BME280;54687;50.800;6.772;2023-01-15T13:04:04;61147.41;;;-144.06;47.82
11017;BME280;54687;50.800;6.772;2023-01-15T13:06:34;61088.72;;;-144.06;47.61
11017;BME280;54687;50.800;6.772;2023-01-15T13:09:04;61153.69;;;-144.06;47.64